sensor_id;sensor_type;location;lat;lon;timestamp;pressure;altitude;pressure_sealevel;temperature;humidity
75460;BME280;64039;53.060;9.342;2023-07-29T00:00:46;100300.53;;;17.19;100.00
75460;BME280;64039;53.060;9.342;2023-07-29T00:03:12;100297.94;;;17.18;100.00
75460;BME280;64039;53.060;9.342;2023-07-29T00:05:38;100304.00;;;17.23;100.00
75460;BME280;64039;53.060;9.342;2023-07-29T00:08:04;100297.91;;;17.21;100.00
75460;BME280;64039;53.060;9.342;2023-07-29T00:10:32;100297.84;;;17.24;100.00
75460;BME280;64039;53.060;9.342;2023-07-29T00:12:58;100292.56;;;17.27;100.00
75460;BME280;64039;53.060;9.342;2023-07-29T00:15:23;100287.25;;;17.28;100.00
75460;BME280;64039;53.060;9.342;2023-07-29T00:17:48;100293.44;;;17.26;100.00
75460;BME280;64039;53.060;9.342;2023-07-29T00:20:14;100289.03;;;17.28;100.00
75460;BME280;64039;53.060;9.342;2023-07-29T00:22:40;100295.13;;;17.30;100.00
75460;BME280;64039;53.060;9.342;2023-07-29T00:25:06;100290.78;;;17.27;100.00
75460;BME280;64039;53.060;9.342;2023-07-29T00:27:31;100286.28;;;17.36;100.00
75460;BME280;64039;53.060;9.342;2023-07-29T00:29:57;100287.97;;;17.38;100.00
75460;BME280;64039;53.060;9.342;2023-07-29T00:32:22;100284.50;;;17.38;100.00
75460;BME280;64039;53.060;9.342;2023-07-29T00:34:48;100279.22;;;17.38;100.00
75460;BME280;64039;53.060;9.342;2023-07-29T00:37:13;100273.00;;;17.43;100.00
75460;BME280;64039;53.060;9.342;2023-07-29T00:39:39;100267.78;;;17.40;100.00
75460;BME280;64039;53.060;9.342;2023-07-29T00:42:05;100273.03;;;17.40;100.00
75460;BME280;64039;53.060;9.342;2023-07-29T00:44:30;100276.47;;;17.47;100.00
75460;BME280;64039;53.060;9.342;2023-07-29T00:46:57;100270.34;;;17.45;100.00
75460;BME280;64039;53.060;9.342;2023-07-29T00:49:23;100278.31;;;17.40;100.00
75460;BME280;64039;53.060;9.342;2023-07-29T00:51:50;100281.88;;;17.38;100.00
75460;BME280;64039;53.060;9.342;2023-07-29T00:54:15;100281.00;;;17.37;100.00
75460;BME280;64039;53.060;9.342;2023-07-29T00:56:41;100281.00;;;17.36;100.00
75460;BME280;64039;53.060;9.342;2023-07-29T00:59:07;100278.38;;;17.36;100.00
75460;BME280;64039;53.060;9.342;2023-07-29T01:01:33;100280.22;;;17.31;100.00
75460;BME280;64039;53.060;9.342;2023-07-29T01:03:59;100276.78;;;17.27;100.00
75460;BME280;64039;53.060;9.342;2023-07-29T01:09:05;100274.25;;;17.21;100.00
75460;BME280;64039;53.060;9.342;2023-07-29T01:11:47;100269.06;;;17.15;100.00
75460;BME280;64039;53.060;9.342;2023-07-29T01:16:57;100270.91;;;17.09;100.00
75460;BME280;64039;53.060;9.342;2023-07-29T01:20:01;100277.91;;;17.09;100.00
75460;BME280;64039;53.060;9.342;2023-07-29T01:22:32;100273.56;;;17.08;100.00
75460;BME280;64039;53.060;9.342;2023-07-29T01:24:58;100273.56;;;17.06;100.00
75460;BME280;64039;53.060;9.342;2023-07-29T01:27:25;100268.38;;;17.03;100.00
75460;BME280;64039;53.060;9.342;2023-07-29T01:29:52;100264.88;;;17.01;100.00
75460;BME280;64039;53.060;9.342;2023-07-29T01:32:28;100271.94;;;16.96;100.00
75460;BME280;64039;53.060;9.342;2023-07-29T01:35:10;100271.13;;;16.94;100.00
75460;BME280;64039;53.060;9.342;2023-07-29T01:37:39;100272.84;;;16.93;100.00
75460;BME280;64039;53.060;9.342;2023-07-29T01:40:08;100270.22;;;16.93;100.00
75460;BME280;64039;53.060;9.342;2023-07-29T01:42:35;100270.22;;;16.92;100.00
75460;BME280;64039;53.060;9.342;2023-07-29T01:45:01;100265.84;;;16.94;100.00
75460;BME280;64039;53.060;9.342;2023-07-29T01:47:27;100258.09;;;16.81;100.00
75460;BME280;64039;53.060;9.342;2023-07-29T01:49:52;100265.19;;;16.76;100.00
75460;BME280;64039;53.060;9.342;2023-07-29T01:52:18;100260.81;;;16.75;100.00
75460;BME280;64039;53.060;9.342;2023-07-29T01:54:43;100261.72;;;16.73;100.00
75460;BME280;64039;53.060;9.342;2023-07-29T01:57:09;100265.22;;;16.73;100.00
75460;BME280;64039;53.060;9.342;2023-07-29T01:59:34;100252.13;;;16.70;100.00
75460;BME280;64039;53.060;9.342;2023-07-29T02:01:59;100252.09;;;16.72;100.00
75460;BME280;64039;53.060;9.342;2023-07-29T02:04:25;100252.28;;;16.58;100.00
75460;BME280;64039;53.060;9.342;2023-07-29T02:06:50;100252.38;;;16.52;100.00
75460;BME280;64039;53.060;9.342;2023-07-29T02:09:16;100249.69;;;16.55;100.00
75460;BME280;64039;53.060;9.342;2023-07-29T02:11:41;100256.72;;;16.53;100.00
75460;BME280;64039;53.060;9.342;2023-07-29T02:14:07;100252.38;;;16.48;100.00
75460;BME280;64039;53.060;9.342;2023-07-29T02:16:32;100256.72;;;16.51;100.00
75460;BME280;64039;53.060;9.342;2023-07-29T02:18:59;100248.84;;;16.51;100.00
75460;BME280;64039;53.060;9.342;2023-07-29T02:21:25;100243.66;;;16.46;100.00
75460;BME280;64039;53.060;9.342;2023-07-29T02:23:50;100247.06;;;16.56;100.00
75460;BME280;64039;53.060;9.342;2023-07-29T02:26:16;100253.19;;;16.55;100.00
75460;BME280;64039;53.060;9.342;2023-07-29T02:28:42;100245.38;;;16.50;100.00
75460;BME280;64039;53.060;9.342;2023-07-29T02:31:24;100253.28;;;16.47;100.00
75460;BME280;64039;53.060;9.342;2023-07-29T02:33:50;100255.97;;;16.44;100.00
75460;BME280;64039;53.060;9.342;2023-07-29T02:36:16;100261.22;;;16.44;100.00
75460;BME280;64039;53.060;9.342;2023-07-29T02:38:44;100263.00;;;16.39;100.00
75460;BME280;64039;53.060;9.342;2023-07-29T02:41:09;100266.47;;;16.43;100.00
75460;BME280;64039;53.060;9.342;2023-07-29T02:43:37;100260.38;;;16.39;100.00
75460;BME280;64039;53.060;9.342;2023-07-29T02:46:03;100262.03;;;16.46;100.00
75460;BME280;64039;53.060;9.342;2023-07-29T02:48:28;100252.44;;;16.44;100.00
75460;BME280;64039;53.060;9.342;2023-07-29T02:50:54;100250.69;;;16.46;100.00
75460;BME280;64039;53.060;9.342;2023-07-29T02:53:21;100251.56;;;16.45;100.00
75460;BME280;64039;53.060;9.342;2023-07-29T02:55:47;100244.53;;;16.47;100.00
75460;BME280;64039;53.060;9.342;2023-07-29T02:58:12;100243.72;;;16.42;100.00
75460;BME280;64039;53.060;9.342;2023-07-29T03:00:38;100248.03;;;16.46;100.00
75460;BME280;64039;53.060;9.342;2023-07-29T03:03:07;100241.09;;;16.40;100.00
75460;BME280;64039;53.060;9.342;2023-07-29T03:05:32;100248.16;;;16.37;100.00
75460;BME280;64039;53.060;9.342;2023-07-29T03:07:58;100247.34;;;16.30;100.00
75460;BME280;64039;53.060;9.342;2023-07-29T03:10:23;100243.06;;;16.24;100.00
75460;BME280;64039;53.060;9.342;2023-07-29T03:12:49;100244.81;;;16.21;100.00
75460;BME280;64039;53.060;9.342;2023-07-29T03:15:14;100244.03;;;16.15;100.00
75460;BME280;64039;53.060;9.342;2023-07-29T03:17:40;100254.53;;;16.14;100.00
75460;BME280;64039;53.060;9.342;2023-07-29T03:20:06;100255.41;;;16.14;100.00
75460;BME280;64039;53.060;9.342;2023-07-29T03:22:31;100252.84;;;16.11;100.00
75460;BME280;64039;53.060;9.342;2023-07-29T03:24:57;100255.44;;;16.13;100.00
75460;BME280;64039;53.060;9.342;2023-07-29T03:27:22;100251.97;;;16.08;100.00
75460;BME280;64039;53.060;9.342;2023-07-29T03:29:48;100257.16;;;16.15;100.00
75460;BME280;64039;53.060;9.342;2023-07-29T03:32:13;100257.22;;;16.08;100.00
75460;BME280;64039;53.060;9.342;2023-07-29T03:34:39;100258.97;;;16.10;100.00
75460;BME280;64039;53.060;9.342;2023-07-29T03:37:06;100258.97;;;16.10;100.00
75460;BME280;64039;53.060;9.342;2023-07-29T03:39:31;100259.84;;;16.09;100.00
75460;BME280;64039;53.060;9.342;2023-07-29T03:41:57;100258.94;;;16.12;100.00
75460;BME280;64039;53.060;9.342;2023-07-29T03:44:23;100258.00;;;16.16;100.00
75460;BME280;64039;53.060;9.342;2023-07-29T03:46:49;100248.44;;;16.12;100.00
75460;BME280;64039;53.060;9.342;2023-07-29T03:49:14;100249.28;;;16.14;100.00
75460;BME280;64039;53.060;9.342;2023-07-29T03:51:40;100247.59;;;16.11;100.00
75460;BME280;64039;53.060;9.342;2023-07-29T03:54:06;100246.69;;;16.11;100.00
75460;BME280;64039;53.060;9.342;2023-07-29T03:56:31;100249.34;;;16.09;100.00
75460;BME280;64039;53.060;9.342;2023-07-29T03:59:06;100247.59;;;16.08;100.00
75460;BME280;64039;53.060;9.342;2023-07-29T04:01:32;100249.38;;;16.05;100.00
75460;BME280;64039;53.060;9.342;2023-07-29T04:03:58;100241.53;;;16.03;100.00
75460;BME280;64039;53.060;9.342;2023-07-29T04:06:23;100239.66;;;16.14;100.00
75460;BME280;64039;53.060;9.342;2023-07-29T04:08:49;100243.16;;;16.15;100.00
75460;BME280;64039;53.060;9.342;2023-07-29T04:11:14;100241.34;;;16.20;100.00
75460;BME280;64039;53.060;9.342;2023-07-29T04:13:40;100240.50;;;16.19;100.00
75460;BME280;64039;53.060;9.342;2023-07-29T04:16:06;100240.44;;;16.23;100.00
75460;BME280;64039;53.060;9.342;2023-07-29T04:18:31;100242.13;;;16.28;100.00
75460;BME280;64039;53.060;9.342;2023-07-29T04:20:57;100231.66;;;16.27;100.00
75460;BME280;64039;53.060;9.342;2023-07-29T04:23:22;100240.31;;;16.35;100.00
75460;BME280;64039;53.060;9.342;2023-07-29T04:25:47;100230.63;;;16.37;100.00
75460;BME280;64039;53.060;9.342;2023-07-29T04:28:13;100227.91;;;16.45;100.00
75460;BME280;64039;53.060;9.342;2023-07-29T04:30:39;100223.44;;;16.53;100.00
75460;BME280;64039;53.060;9.342;2023-07-29T04:33:04;100219.88;;;16.59;100.00
75460;BME280;64039;53.060;9.342;2023-07-29T04:35:29;100227.63;;;16.68;100.00
75460;BME280;64039;53.060;9.342;2023-07-29T04:37:55;100229.38;;;16.69;100.00
75460;BME280;64039;53.060;9.342;2023-07-29T04:40:20;100229.31;;;16.72;100.00
75460;BME280;64039;53.060;9.342;2023-07-29T04:42:48;100231.03;;;16.76;100.00
75460;BME280;64039;53.060;9.342;2023-07-29T04:45:13;100222.25;;;16.77;100.00
75460;BME280;64039;53.060;9.342;2023-07-29T04:47:39;100215.25;;;16.76;100.00
75460;BME280;64039;53.060;9.342;2023-07-29T04:50:05;100211.63;;;16.84;100.00
75460;BME280;64039;53.060;9.342;2023-07-29T04:52:31;100211.53;;;16.90;100.00
75460;BME280;64039;53.060;9.342;2023-07-29T04:54:57;100222.84;;;17.00;100.00
75460;BME280;64039;53.060;9.342;2023-07-29T04:57:22;100220.22;;;16.98;100.00
75460;BME280;64039;53.060;9.342;2023-07-29T04:59:47;100223.66;;;17.02;100.00
75460;BME280;64039;53.060;9.342;2023-07-29T05:02:13;100224.50;;;17.07;100.00
75460;BME280;64039;53.060;9.342;2023-07-29T05:04:38;100226.13;;;17.12;100.00
75460;BME280;64039;53.060;9.342;2023-07-29T05:07:04;100224.34;;;17.16;100.00
75460;BME280;64039;53.060;9.342;2023-07-29T05:09:30;100219.13;;;17.13;100.00
75460;BME280;64039;53.060;9.342;2023-07-29T05:11:55;100219.97;;;17.13;100.00
75460;BME280;64039;53.060;9.342;2023-07-29T05:14:20;100221.66;;;17.19;100.00
75460;BME280;64039;53.060;9.342;2023-07-29T05:16:46;100214.66;;;17.20;100.00
75460;BME280;64039;53.060;9.342;2023-07-29T05:19:12;100208.31;;;17.30;100.00
75460;BME280;64039;53.060;9.342;2023-07-29T05:21:37;100211.00;;;17.28;100.00
75460;BME280;64039;53.060;9.342;2023-07-29T05:24:03;100210.88;;;17.36;100.00
75460;BME280;64039;53.060;9.342;2023-07-29T05:26:29;100202.09;;;17.36;100.00
75460;BME280;64039;53.060;9.342;2023-07-29T05:28:56;100201.25;;;17.35;100.00
75460;BME280;64039;53.060;9.342;2023-07-29T05:31:22;100206.25;;;17.51;100.00
75460;BME280;64039;53.060;9.342;2023-07-29T05:33:48;100206.25;;;17.51;100.00
75460;BME280;64039;53.060;9.342;2023-07-29T05:36:14;100196.50;;;17.56;100.00
75460;BME280;64039;53.060;9.342;2023-07-29T05:38:39;100203.41;;;17.62;100.00
75460;BME280;64039;53.060;9.342;2023-07-29T05:41:05;100201.53;;;17.68;100.00
75460;BME280;64039;53.060;9.342;2023-07-29T05:43:30;100209.41;;;17.70;100.00
75460;BME280;64039;53.060;9.342;2023-07-29T05:45:56;100197.88;;;17.77;100.00
75460;BME280;64039;53.060;9.342;2023-07-29T05:48:21;100200.19;;;17.96;100.00
75460;BME280;64039;53.060;9.342;2023-07-29T05:50:47;100208.03;;;17.99;100.00
75460;BME280;64039;53.060;9.342;2023-07-29T05:53:14;100201.81;;;18.03;100.00
75460;BME280;64039;53.060;9.342;2023-07-29T05:55:39;100200.81;;;18.09;100.00
75460;BME280;64039;53.060;9.342;2023-07-29T05:58:05;100197.84;;;18.26;100.00
75460;BME280;64039;53.060;9.342;2023-07-29T06:00:31;100198.72;;;18.26;100.00
75460;BME280;64039;53.060;9.342;2023-07-29T06:02:56;100197.06;;;18.20;100.00
75460;BME280;64039;53.060;9.342;2023-07-29T06:05:22;100197.94;;;18.21;100.00
75460;BME280;64039;53.060;9.342;2023-07-29T06:07:47;100202.28;;;18.22;100.00
75460;BME280;64039;53.060;9.342;2023-07-29T06:10:14;100205.78;;;18.24;100.00
75460;BME280;64039;53.060;9.342;2023-07-29T06:12:43;100200.50;;;18.24;100.00
75460;BME280;64039;53.060;9.342;2023-07-29T06:15:09;100204.84;;;18.27;100.00
75460;BME280;64039;53.060;9.342;2023-07-29T06:17:34;100209.31;;;18.23;100.00
75460;BME280;64039;53.060;9.342;2023-07-29T06:20:00;100200.50;;;18.24;100.00
75460;BME280;64039;53.060;9.342;2023-07-29T06:22:25;100205.63;;;18.30;100.00
75460;BME280;64039;53.060;9.342;2023-07-29T06:24:51;100209.28;;;18.25;100.00
75460;BME280;64039;53.060;9.342;2023-07-29T06:27:16;100204.88;;;18.25;100.00
75460;BME280;64039;53.060;9.342;2023-07-29T06:29:42;100202.28;;;18.22;100.00
75460;BME280;64039;53.060;9.342;2023-07-29T06:32:07;100211.97;;;18.21;100.00
75460;BME280;64039;53.060;9.342;2023-07-29T06:34:33;100215.56;;;18.17;100.00
75460;BME280;64039;53.060;9.342;2023-07-29T06:36:58;100212.09;;;18.15;100.00
75460;BME280;64039;53.060;9.342;2023-07-29T06:39:24;100206.94;;;18.11;100.00
75460;BME280;64039;53.060;9.342;2023-07-29T06:41:49;100212.03;;;18.20;100.00
75460;BME280;64039;53.060;9.342;2023-07-29T06:44:17;100212.81;;;18.22;100.00
75460;BME280;64039;53.060;9.342;2023-07-29T06:46:43;100210.16;;;18.25;100.00
75460;BME280;64039;53.060;9.342;2023-07-29T06:49:08;100218.84;;;18.29;100.00
75460;BME280;64039;53.060;9.342;2023-07-29T06:51:34;100217.00;;;18.34;100.00
75460;BME280;64039;53.060;9.342;2023-07-29T06:54:01;100223.97;;;18.36;100.00
75460;BME280;64039;53.060;9.342;2023-07-29T06:56:27;100224.13;;;18.29;100.00
75460;BME280;64039;53.060;9.342;2023-07-29T06:58:52;100226.63;;;18.36;100.00
75460;BME280;64039;53.060;9.342;2023-07-29T07:01:18;100225.69;;;18.39;100.00
75460;BME280;64039;53.060;9.342;2023-07-29T07:03:43;100224.84;;;18.37;100.00
75460;BME280;64039;53.060;9.342;2023-07-29T07:06:09;100227.59;;;18.31;100.00
75460;BME280;64039;53.060;9.342;2023-07-29T07:08:35;100231.78;;;18.41;100.00
75460;BME280;64039;53.060;9.342;2023-07-29T07:11:00;100228.31;;;18.39;100.00
75460;BME280;64039;53.060;9.342;2023-07-29T07:13:26;100231.69;;;18.46;100.00
75460;BME280;64039;53.060;9.342;2023-07-29T07:15:54;100227.41;;;18.40;100.00
75460;BME280;64039;53.060;9.342;2023-07-29T07:18:20;100226.56;;;18.38;100.00
75460;BME280;64039;53.060;9.342;2023-07-29T07:20:50;100228.16;;;18.45;100.00
75460;BME280;64039;53.060;9.342;2023-07-29T07:23:16;100221.31;;;18.38;100.00
75460;BME280;64039;53.060;9.342;2023-07-29T07:25:42;100223.59;;;18.53;100.00
75460;BME280;64039;53.060;9.342;2023-07-29T07:28:09;100221.44;;;18.73;100.00
75460;BME280;64039;53.060;9.342;2023-07-29T07:30:34;100220.47;;;18.77;100.00
75460;BME280;64039;53.060;9.342;2023-07-29T07:33:00;100218.47;;;18.88;100.00
75460;BME280;64039;53.060;9.342;2023-07-29T07:35:25;100219.38;;;18.87;100.00
75460;BME280;64039;53.060;9.342;2023-07-29T07:37:51;100225.16;;;19.05;100.00
75460;BME280;64039;53.060;9.342;2023-07-29T07:40:16;100223.31;;;19.08;100.00
75460;BME280;64039;53.060;9.342;2023-07-29T07:42:42;100218.75;;;19.15;100.00
75460;BME280;64039;53.060;9.342;2023-07-29T07:45:07;100213.78;;;19.03;100.00
75460;BME280;64039;53.060;9.342;2023-07-29T07:47:33;100219.47;;;19.22;100.00
75460;BME280;64039;53.060;9.342;2023-07-29T07:49:58;100223.41;;;19.40;100.00
75460;BME280;64039;53.060;9.342;2023-07-29T07:52:24;100228.06;;;19.30;100.00
75460;BME280;64039;53.060;9.342;2023-07-29T07:54:53;100229.75;;;19.32;100.00
75460;BME280;64039;53.060;9.342;2023-07-29T07:57:20;100227.78;;;19.41;100.00
75460;BME280;64039;53.060;9.342;2023-07-29T07:59:46;100228.53;;;19.47;100.00
75460;BME280;64039;53.060;9.342;2023-07-29T08:02:11;100232.06;;;19.46;100.00
75460;BME280;64039;53.060;9.342;2023-07-29T08:04:37;100226.44;;;19.24;100.00
75460;BME280;64039;53.060;9.342;2023-07-29T08:07:03;100229.69;;;19.36;100.00
75460;BME280;64039;53.060;9.342;2023-07-29T08:09:28;100235.59;;;19.45;100.00
75460;BME280;64039;53.060;9.342;2023-07-29T08:11:54;100237.34;;;19.46;100.00
75460;BME280;64039;53.060;9.342;2023-07-29T08:14:19;100229.59;;;19.40;100.00
75460;BME280;64039;53.060;9.342;2023-07-29T08:16:45;100231.34;;;19.40;100.00
75460;BME280;64039;53.060;9.342;2023-07-29T08:19:10;100229.06;;;19.24;100.00
75460;BME280;64039;53.060;9.342;2023-07-29T08:21:36;100230.06;;;19.20;100.00
75460;BME280;64039;53.060;9.342;2023-07-29T08:24:01;100222.72;;;19.33;100.00
75460;BME280;64039;53.060;9.342;2023-07-29T08:26:27;100228.56;;;19.46;100.00
75460;BME280;64039;53.060;9.342;2023-07-29T08:28:52;100227.66;;;19.47;100.00
75460;BME280;64039;53.060;9.342;2023-07-29T08:31:18;100223.78;;;19.60;100.00
75460;BME280;64039;53.060;9.342;2023-07-29T08:33:43;100221.22;;;19.57;100.00
75460;BME280;64039;53.060;9.342;2023-07-29T08:36:09;100211.44;;;19.61;100.00
75460;BME280;64039;53.060;9.342;2023-07-29T08:38:35;100217.16;;;19.78;100.00
75460;BME280;64039;53.060;9.342;2023-07-29T08:43:39;100222.78;;;19.64;100.00
75460;BME280;64039;53.060;9.342;2023-07-29T08:46:07;100222.84;;;19.63;100.00
75460;BME280;64039;53.060;9.342;2023-07-29T08:48:40;100228.78;;;19.71;100.00
75460;BME280;64039;53.060;9.342;2023-07-29T08:51:08;100229.34;;;19.84;100.00
75460;BME280;64039;53.060;9.342;2023-07-29T08:53:35;100227.50;;;19.88;100.00
75460;BME280;64039;53.060;9.342;2023-07-29T08:56:00;100220.63;;;19.80;100.00
75460;BME280;64039;53.060;9.342;2023-07-29T08:58:26;100215.91;;;19.93;100.00
75460;BME280;64039;53.060;9.342;2023-07-29T09:00:52;100221.97;;;19.97;100.00
75460;BME280;64039;53.060;9.342;2023-07-29T09:03:18;100213.97;;;20.32;100.00
75460;BME280;64039;53.060;9.342;2023-07-29T09:05:45;100217.03;;;20.18;100.00
75460;BME280;64039;53.060;9.342;2023-07-29T09:08:11;100224.38;;;20.38;100.00
75460;BME280;64039;53.060;9.342;2023-07-29T09:10:37;100223.03;;;20.53;100.00
75460;BME280;64039;53.060;9.342;2023-07-29T09:13:03;100215.03;;;20.24;100.00
75460;BME280;64039;53.060;9.342;2023-07-29T09:15:30;100210.84;;;20.49;100.00
75460;BME280;64039;53.060;9.342;2023-07-29T09:17:57;100212.19;;;20.62;100.00
75460;BME280;64039;53.060;9.342;2023-07-29T09:20:29;100213.31;;;20.85;100.00
75460;BME280;64039;53.060;9.342;2023-07-29T09:22:56;100214.56;;;21.01;100.00
75460;BME280;64039;53.060;9.342;2023-07-29T09:25:27;100205.81;;;20.99;100.00
75460;BME280;64039;53.060;9.342;2023-07-29T09:27:58;100203.25;;;20.66;100.00
75460;BME280;64039;53.060;9.342;2023-07-29T09:30:24;100206.81;;;20.65;100.00
75460;BME280;64039;53.060;9.342;2023-07-29T09:32:55;100209.84;;;20.83;100.00
75460;BME280;64039;53.060;9.342;2023-07-29T09:35:21;100209.66;;;20.89;100.00
75460;BME280;64039;53.060;9.342;2023-07-29T09:37:46;100203.66;;;20.82;100.00
75460;BME280;64039;53.060;9.342;2023-07-29T09:40:17;100210.00;;;20.78;100.00
75460;BME280;64039;53.060;9.342;2023-07-29T09:42:54;100206.25;;;20.54;100.00
75460;BME280;64039;53.060;9.342;2023-07-29T09:45:25;100206.75;;;20.67;100.00
75460;BME280;64039;53.060;9.342;2023-07-29T09:47:52;100205.78;;;20.69;100.00
75460;BME280;64039;53.060;9.342;2023-07-29T09:50:17;100210.00;;;20.47;100.00
75460;BME280;64039;53.060;9.342;2023-07-29T09:52:44;100201.75;;;20.57;100.00
75460;BME280;64039;53.060;9.342;2023-07-29T09:55:12;100205.28;;;20.58;100.00
75460;BME280;64039;53.060;9.342;2023-07-29T09:57:40;100202.34;;;20.67;100.00
75460;BME280;64039;53.060;9.342;2023-07-29T10:00:06;100212.50;;;20.83;100.00
75460;BME280;64039;53.060;9.342;2023-07-29T10:02:38;100208.13;;;20.52;100.00
75460;BME280;64039;53.060;9.342;2023-07-29T10:05:05;100209.78;;;20.54;100.00
75460;BME280;64039;53.060;9.342;2023-07-29T10:07:31;100209.63;;;20.31;100.00
75460;BME280;64039;53.060;9.342;2023-07-29T10:09:58;100202.47;;;20.33;100.00
75460;BME280;64039;53.060;9.342;2023-07-29T10:12:24;100217.88;;;20.48;100.00
75460;BME280;64039;53.060;9.342;2023-07-29T10:14:50;100212.44;;;20.54;100.00
75460;BME280;64039;53.060;9.342;2023-07-29T10:17:16;100217.03;;;20.48;100.00
75460;BME280;64039;53.060;9.342;2023-07-29T10:19:43;100206.81;;;20.65;100.00
75460;BME280;64039;53.060;9.342;2023-07-29T10:22:11;100210.19;;;20.40;100.00
75460;BME280;64039;53.060;9.342;2023-07-29T10:24:39;100202.81;;;20.82;100.00
75460;BME280;64039;53.060;9.342;2023-07-29T10:27:10;100196.91;;;20.73;100.00
75460;BME280;64039;53.060;9.342;2023-07-29T10:29:38;100193.28;;;21.04;100.00
75460;BME280;64039;53.060;9.342;2023-07-29T10:32:07;100190.19;;;21.18;100.00
75460;BME280;64039;53.060;9.342;2023-07-29T10:34:36;100192.44;;;21.31;100.00
75460;BME280;64039;53.060;9.342;2023-07-29T10:37:02;100197.41;;;21.67;100.00
75460;BME280;64039;53.060;9.342;2023-07-29T10:39:37;100200.47;;;21.81;100.00
75460;BME280;64039;53.060;9.342;2023-07-29T10:42:05;100191.97;;;21.95;100.00
75460;BME280;64039;53.060;9.342;2023-07-29T10:47:15;100199.44;;;21.59;100.00
75460;BME280;64039;53.060;9.342;2023-07-29T10:49:43;100190.38;;;21.91;100.00
75460;BME280;64039;53.060;9.342;2023-07-29T10:52:08;100187.16;;;21.83;100.00
75460;BME280;64039;53.060;9.342;2023-07-29T10:54:45;100187.53;;;21.72;100.00
75460;BME280;64039;53.060;9.342;2023-07-29T10:57:15;100190.44;;;21.64;100.00
75460;BME280;64039;53.060;9.342;2023-07-29T10:59:41;100196.25;;;21.74;100.00
75460;BME280;64039;53.060;9.342;2023-07-29T11:02:17;100192.34;;;21.86;100.00
75460;BME280;64039;53.060;9.342;2023-07-29T11:04:50;100185.91;;;21.93;100.00
75460;BME280;64039;53.060;9.342;2023-07-29T11:20:12;100184.88;;;21.72;99.80
75460;BME280;64039;53.060;9.342;2023-07-29T11:22:38;100185.75;;;21.98;100.00
75460;BME280;64039;53.060;9.342;2023-07-29T11:25:04;100181.78;;;22.10;97.46
75460;BME280;64039;53.060;9.342;2023-07-29T11:27:30;100189.56;;;22.14;97.63
75460;BME280;64039;53.060;9.342;2023-07-29T11:30:00;100186.06;;;22.36;98.46
75460;BME280;64039;53.060;9.342;2023-07-29T11:32:26;100172.69;;;22.41;94.57
75460;BME280;64039;53.060;9.342;2023-07-29T11:34:52;100190.50;;;22.83;93.96
75460;BME280;64039;53.060;9.342;2023-07-29T11:37:17;100183.75;;;22.97;90.75
75460;BME280;64039;53.060;9.342;2023-07-29T11:39:44;100176.88;;;23.13;88.69
75460;BME280;64039;53.060;9.342;2023-07-29T11:42:14;100178.84;;;22.87;87.22
75460;BME280;64039;53.060;9.342;2023-07-29T11:44:40;100175.63;;;22.57;88.73
75460;BME280;64039;53.060;9.342;2023-07-29T11:47:10;100177.56;;;22.52;89.02
75460;BME280;64039;53.060;9.342;2023-07-29T11:49:36;100179.53;;;22.47;91.18
75460;BME280;64039;53.060;9.342;2023-07-29T11:52:03;100188.47;;;22.20;90.20
75460;BME280;64039;53.060;9.342;2023-07-29T11:54:31;100185.41;;;22.31;94.20
75460;BME280;64039;53.060;9.342;2023-07-29T11:56:56;100184.66;;;22.51;89.86
75460;BME280;64039;53.060;9.342;2023-07-29T11:59:23;100181.03;;;22.54;90.15
75460;BME280;64039;53.060;9.342;2023-07-29T12:01:48;100183.91;;;22.24;91.08
75460;BME280;64039;53.060;9.342;2023-07-29T12:04:14;100183.38;;;22.14;93.37
75460;BME280;64039;53.060;9.342;2023-07-29T12:06:41;100174.84;;;22.06;90.98
75460;BME280;64039;53.060;9.342;2023-07-29T12:09:07;100186.44;;;22.27;90.18
75460;BME280;64039;53.060;9.342;2023-07-29T12:11:34;100192.06;;;22.18;91.02
75460;BME280;64039;53.060;9.342;2023-07-29T12:14:00;100195.22;;;22.04;88.55
75460;BME280;64039;53.060;9.342;2023-07-29T12:16:26;100201.16;;;22.10;87.65
75460;BME280;64039;53.060;9.342;2023-07-29T12:18:51;100203.53;;;21.94;89.78
75460;BME280;64039;53.060;9.342;2023-07-29T12:21:18;100201.94;;;21.63;92.63
75460;BME280;64039;53.060;9.342;2023-07-29T12:23:44;100210.75;;;21.89;91.86
75460;BME280;64039;53.060;9.342;2023-07-29T12:26:10;100210.63;;;22.18;91.16
75460;BME280;64039;53.060;9.342;2023-07-29T12:28:35;100203.78;;;22.36;88.78
75460;BME280;64039;53.060;9.342;2023-07-29T12:31:01;100216.31;;;22.56;89.56
75460;BME280;64039;53.060;9.342;2023-07-29T12:33:36;100211.00;;;22.56;88.87
75460;BME280;64039;53.060;9.342;2023-07-29T12:36:04;100218.81;;;22.35;85.73
75460;BME280;64039;53.060;9.342;2023-07-29T12:38:30;100219.16;;;22.26;87.26
75460;BME280;64039;53.060;9.342;2023-07-29T12:40:56;100211.94;;;22.29;85.18
75460;BME280;64039;53.060;9.342;2023-07-29T12:43:22;100219.47;;;22.66;85.90
75460;BME280;64039;53.060;9.342;2023-07-29T12:45:50;100211.03;;;23.00;81.02
75460;BME280;64039;53.060;9.342;2023-07-29T12:48:16;100212.09;;;22.96;77.56
75460;BME280;64039;53.060;9.342;2023-07-29T12:50:41;100216.47;;;22.97;77.99
75460;BME280;64039;53.060;9.342;2023-07-29T12:53:08;100209.66;;;22.68;77.32
75460;BME280;64039;53.060;9.342;2023-07-29T12:55:35;100205.91;;;22.73;78.81
75460;BME280;64039;53.060;9.342;2023-07-29T12:58:01;100221.09;;;22.92;79.67
75460;BME280;64039;53.060;9.342;2023-07-29T13:00:27;100203.47;;;22.91;76.17